Terminal Aerodrome Forecast
Issued by NWS

Current Version | Previous Version | Text Only | Print | Product List | Glossary On
Versions: 1 2 3 4 5 6 7 8 9 10 11 12 13 14 15
044
FTUS42 TJSJ 201142
TAFJMZ
TAF
TJMZ 201142Z 2012/2112 08005KT P6SM FEW025 SCT070
     FM201500 26010KT P6SM VCSH SCT030
      TEMPO 2016/2020 TSRA BKN020CB
     FM202200 27012KT P6SM FEW030 BKN060
      AMD NOT SKED=

USA.gov is the U.S. government's official web portal to all federal, state and local government web resources and services.